Main page
METAR-TAF:

METAR-TAF

Airports :

Rajmata Vijaya Raje Scindia Airport

Gwalior, India

latitude: 26-17-36N, longitude: 78-13-40E, elevation: 188 m

METAR: missing

Time: 23:06 (17:36 UTC)

Forecast

The report was made 8 hours and 6 minutes ago, at 09:30 UTC
Forecast valid from 25 at 12 UTC to 26 at 00 UTC
Wind 5 kt from the Northwest
Visibility: 6000 m
Scattered clouds at a height of 3000 ft
Becoming
from 25 at 15 UTC to 25 at 17 UTC
Wind 2 kt from variable directions
Visibility: 5000 m
Few clouds at a height of 3000 ft
mist
Becoming
from 25 at 18 UTC to 25 at 20 UTC
Wind 2 kt from variable directions
Visibility: 4000 m
Few clouds at a height of 10000 ft
mist

TAF: VIGR 250930Z 2512/2600 32005KT 6000 SCT030 BECMG 2515/2517 VRB02KT 5000 BR FEW030 BECMG 2518/2520 VRB02KT 4000 BR FEW100

Weather observations and forecasts of more than 4000 airports (METAR and TAF reports).

The available stations are represented by yellow and red dots on the map.

Hover mouse over dot to see the name of the station.

Then click to see weather observations and forecasts.

To change the map : click on the green buttons with a black cross to zoom in, on the green button with a dash to zoom out, or on the green arrows for adjacent maps.


METAR-TAF: